sensor_id;sensor_type;location;lat;lon;timestamp;P1;durP1;ratioP1;P2;durP2;ratioP2
59476;SDS011;73078;49.762;6.594;2023-12-20T00:01:29;9.20;;;5.40;;
59476;SDS011;73078;49.762;6.594;2023-12-20T00:03:55;8.93;;;4.82;;
59476;SDS011;73078;49.762;6.594;2023-12-20T00:06:21;8.90;;;5.03;;
59476;SDS011;73078;49.762;6.594;2023-12-20T00:08:46;9.38;;;4.80;;
59476;SDS011;73078;49.762;6.594;2023-12-20T00:11:12;8.30;;;5.00;;
59476;SDS011;73078;49.762;6.594;2023-12-20T00:13:38;10.68;;;5.53;;
59476;SDS011;73078;49.762;6.594;2023-12-20T00:16:04;8.38;;;4.70;;
59476;SDS011;73078;49.762;6.594;2023-12-20T00:18:30;9.35;;;5.38;;
59476;SDS011;73078;49.762;6.594;2023-12-20T00:20:56;9.10;;;5.70;;
59476;SDS011;73078;49.762;6.594;2023-12-20T00:23:23;8.95;;;5.40;;
59476;SDS011;73078;49.762;6.594;2023-12-20T00:25:49;10.15;;;5.57;;
59476;SDS011;73078;49.762;6.594;2023-12-20T00:28:15;8.77;;;5.55;;
59476;SDS011;73078;49.762;6.594;2023-12-20T00:30:41;9.10;;;5.43;;
59476;SDS011;73078;49.762;6.594;2023-12-20T00:33:07;9.65;;;4.97;;
59476;SDS011;73078;49.762;6.594;2023-12-20T00:35:33;9.15;;;5.00;;
59476;SDS011;73078;49.762;6.594;2023-12-20T00:37:59;9.60;;;5.60;;
59476;SDS011;73078;49.762;6.594;2023-12-20T00:40:25;8.43;;;5.68;;
59476;SDS011;73078;49.762;6.594;2023-12-20T00:42:51;9.00;;;5.57;;
59476;SDS011;73078;49.762;6.594;2023-12-20T00:45:17;8.32;;;5.30;;
59476;SDS011;73078;49.762;6.594;2023-12-20T00:47:43;8.27;;;5.60;;
59476;SDS011;73078;49.762;6.594;2023-12-20T00:50:09;9.27;;;5.65;;
59476;SDS011;73078;49.762;6.594;2023-12-20T00:52:35;8.73;;;5.07;;
59476;SDS011;73078;49.762;6.594;2023-12-20T00:55:01;8.43;;;5.28;;
59476;SDS011;73078;49.762;6.594;2023-12-20T00:57:27;8.88;;;5.68;;
59476;SDS011;73078;49.762;6.594;2023-12-20T00:59:53;10.07;;;6.25;;
59476;SDS011;73078;49.762;6.594;2023-12-20T01:02:18;12.32;;;6.43;;
59476;SDS011;73078;49.762;6.594;2023-12-20T01:04:44;9.63;;;5.60;;
59476;SDS011;73078;49.762;6.594;2023-12-20T01:07:10;12.70;;;5.38;;
59476;SDS011;73078;49.762;6.594;2023-12-20T01:09:37;9.20;;;5.40;;
59476;SDS011;73078;49.762;6.594;2023-12-20T01:12:03;8.77;;;5.63;;
59476;SDS011;73078;49.762;6.594;2023-12-20T01:14:29;9.25;;;5.55;;
59476;SDS011;73078;49.762;6.594;2023-12-20T01:16:55;8.30;;;5.18;;
59476;SDS011;73078;49.762;6.594;2023-12-20T01:19:21;11.05;;;6.18;;
59476;SDS011;73078;49.762;6.594;2023-12-20T01:21:48;12.00;;;6.28;;
59476;SDS011;73078;49.762;6.594;2023-12-20T01:24:15;10.95;;;6.43;;
59476;SDS011;73078;49.762;6.594;2023-12-20T01:26:41;8.95;;;4.93;;
59476;SDS011;73078;49.762;6.594;2023-12-20T01:29:07;8.23;;;4.90;;
59476;SDS011;73078;49.762;6.594;2023-12-20T01:31:33;9.05;;;5.53;;
59476;SDS011;73078;49.762;6.594;2023-12-20T01:33:59;9.50;;;5.35;;
59476;SDS011;73078;49.762;6.594;2023-12-20T01:36:25;8.95;;;5.68;;
59476;SDS011;73078;49.762;6.594;2023-12-20T01:38:51;8.38;;;4.80;;
59476;SDS011;73078;49.762;6.594;2023-12-20T01:41:17;9.90;;;5.50;;
59476;SDS011;73078;49.762;6.594;2023-12-20T01:43:43;10.13;;;5.30;;
59476;SDS011;73078;49.762;6.594;2023-12-20T01:46:09;8.57;;;5.15;;
59476;SDS011;73078;49.762;6.594;2023-12-20T01:48:35;8.27;;;5.15;;
59476;SDS011;73078;49.762;6.594;2023-12-20T01:51:01;9.93;;;5.28;;
59476;SDS011;73078;49.762;6.594;2023-12-20T01:53:27;9.77;;;5.53;;
59476;SDS011;73078;49.762;6.594;2023-12-20T01:55:54;9.40;;;5.22;;
59476;SDS011;73078;49.762;6.594;2023-12-20T01:58:20;11.30;;;5.47;;
59476;SDS011;73078;49.762;6.594;2023-12-20T02:00:47;9.05;;;5.40;;
59476;SDS011;73078;49.762;6.594;2023-12-20T02:03:13;8.57;;;5.38;;
59476;SDS011;73078;49.762;6.594;2023-12-20T02:05:39;9.82;;;5.88;;
59476;SDS011;73078;49.762;6.594;2023-12-20T02:08:06;9.98;;;6.03;;
59476;SDS011;73078;49.762;6.594;2023-12-20T02:10:32;8.65;;;5.38;;
59476;SDS011;73078;49.762;6.594;2023-12-20T02:12:58;12.05;;;5.70;;
59476;SDS011;73078;49.762;6.594;2023-12-20T02:15:24;10.75;;;5.97;;
59476;SDS011;73078;49.762;6.594;2023-12-20T02:17:50;9.40;;;6.05;;
59476;SDS011;73078;49.762;6.594;2023-12-20T02:20:16;11.40;;;6.75;;
59476;SDS011;73078;49.762;6.594;2023-12-20T02:22:42;10.70;;;6.40;;
59476;SDS011;73078;49.762;6.594;2023-12-20T02:25:08;10.73;;;6.03;;
59476;SDS011;73078;49.762;6.594;2023-12-20T02:27:34;12.02;;;6.30;;
59476;SDS011;73078;49.762;6.594;2023-12-20T02:30:00;9.45;;;5.63;;
59476;SDS011;73078;49.762;6.594;2023-12-20T02:32:26;9.60;;;5.75;;
59476;SDS011;73078;49.762;6.594;2023-12-20T02:34:54;14.88;;;6.05;;
59476;SDS011;73078;49.762;6.594;2023-12-20T02:37:20;10.43;;;6.38;;
59476;SDS011;73078;49.762;6.594;2023-12-20T02:39:46;9.88;;;6.13;;
59476;SDS011;73078;49.762;6.594;2023-12-20T02:42:12;10.38;;;5.95;;
59476;SDS011;73078;49.762;6.594;2023-12-20T02:44:38;11.77;;;6.18;;
59476;SDS011;73078;49.762;6.594;2023-12-20T02:47:04;9.32;;;5.93;;
59476;SDS011;73078;49.762;6.594;2023-12-20T02:49:30;9.80;;;5.95;;
59476;SDS011;73078;49.762;6.594;2023-12-20T02:51:56;11.20;;;6.50;;
59476;SDS011;73078;49.762;6.594;2023-12-20T02:54:22;9.88;;;6.07;;
59476;SDS011;73078;49.762;6.594;2023-12-20T02:56:48;10.98;;;5.88;;
59476;SDS011;73078;49.762;6.594;2023-12-20T02:59:14;9.98;;;6.00;;
59476;SDS011;73078;49.762;6.594;2023-12-20T03:01:44;9.10;;;5.88;;
59476;SDS011;73078;49.762;6.594;2023-12-20T03:04:10;10.32;;;5.55;;
59476;SDS011;73078;49.762;6.594;2023-12-20T03:06:36;10.23;;;5.85;;
59476;SDS011;73078;49.762;6.594;2023-12-20T03:09:02;8.88;;;5.47;;
59476;SDS011;73078;49.762;6.594;2023-12-20T03:11:28;10.48;;;5.60;;
59476;SDS011;73078;49.762;6.594;2023-12-20T03:13:54;9.13;;;5.88;;
59476;SDS011;73078;49.762;6.594;2023-12-20T03:16:20;11.88;;;6.30;;
59476;SDS011;73078;49.762;6.594;2023-12-20T03:18:46;10.05;;;5.80;;
59476;SDS011;73078;49.762;6.594;2023-12-20T03:21:12;9.50;;;6.53;;
59476;SDS011;73078;49.762;6.594;2023-12-20T03:23:39;10.73;;;5.70;;
59476;SDS011;73078;49.762;6.594;2023-12-20T03:26:09;10.73;;;5.93;;
59476;SDS011;73078;49.762;6.594;2023-12-20T03:28:36;10.73;;;6.63;;
59476;SDS011;73078;49.762;6.594;2023-12-20T03:31:02;13.45;;;6.68;;
59476;SDS011;73078;49.762;6.594;2023-12-20T03:33:28;11.88;;;6.78;;
59476;SDS011;73078;49.762;6.594;2023-12-20T03:35:54;9.85;;;5.95;;
59476;SDS011;73078;49.762;6.594;2023-12-20T03:38:20;12.30;;;5.97;;
59476;SDS011;73078;49.762;6.594;2023-12-20T03:40:48;14.00;;;6.70;;
59476;SDS011;73078;49.762;6.594;2023-12-20T03:43:14;13.63;;;6.47;;
59476;SDS011;73078;49.762;6.594;2023-12-20T03:45:41;11.07;;;6.15;;
59476;SDS011;73078;49.762;6.594;2023-12-20T03:48:07;11.68;;;6.00;;
59476;SDS011;73078;49.762;6.594;2023-12-20T03:50:33;13.98;;;6.10;;
59476;SDS011;73078;49.762;6.594;2023-12-20T03:52:59;11.65;;;5.80;;
59476;SDS011;73078;49.762;6.594;2023-12-20T03:55:25;11.52;;;6.32;;
59476;SDS011;73078;49.762;6.594;2023-12-20T03:57:51;10.60;;;5.75;;
59476;SDS011;73078;49.762;6.594;2023-12-20T04:00:17;14.00;;;6.25;;
59476;SDS011;73078;49.762;6.594;2023-12-20T04:02:43;10.45;;;5.35;;
59476;SDS011;73078;49.762;6.594;2023-12-20T04:05:09;10.80;;;5.47;;
59476;SDS011;73078;49.762;6.594;2023-12-20T04:07:36;9.77;;;5.05;;
59476;SDS011;73078;49.762;6.594;2023-12-20T04:10:02;10.60;;;5.50;;
59476;SDS011;73078;49.762;6.594;2023-12-20T04:12:31;11.05;;;5.00;;
59476;SDS011;73078;49.762;6.594;2023-12-20T04:14:57;10.90;;;5.03;;
59476;SDS011;73078;49.762;6.594;2023-12-20T04:17:23;10.63;;;5.75;;
59476;SDS011;73078;49.762;6.594;2023-12-20T04:19:49;8.40;;;4.18;;
59476;SDS011;73078;49.762;6.594;2023-12-20T04:22:16;12.00;;;5.07;;
59476;SDS011;73078;49.762;6.594;2023-12-20T04:24:42;8.73;;;5.18;;
59476;SDS011;73078;49.762;6.594;2023-12-20T04:27:08;9.48;;;4.50;;
59476;SDS011;73078;49.762;6.594;2023-12-20T04:29:34;9.75;;;4.68;;
59476;SDS011;73078;49.762;6.594;2023-12-20T04:32:00;7.60;;;4.65;;
59476;SDS011;73078;49.762;6.594;2023-12-20T04:34:26;8.68;;;4.68;;
59476;SDS011;73078;49.762;6.594;2023-12-20T04:36:52;8.77;;;4.47;;
59476;SDS011;73078;49.762;6.594;2023-12-20T04:39:18;6.82;;;4.07;;
59476;SDS011;73078;49.762;6.594;2023-12-20T04:41:44;8.90;;;4.72;;
59476;SDS011;73078;49.762;6.594;2023-12-20T04:44:12;12.25;;;4.70;;
59476;SDS011;73078;49.762;6.594;2023-12-20T04:46:38;7.57;;;3.88;;
59476;SDS011;73078;49.762;6.594;2023-12-20T04:49:04;9.93;;;3.83;;
59476;SDS011;73078;49.762;6.594;2023-12-20T04:51:32;10.80;;;3.97;;
59476;SDS011;73078;49.762;6.594;2023-12-20T04:53:58;7.20;;;3.75;;
59476;SDS011;73078;49.762;6.594;2023-12-20T04:56:24;7.15;;;3.60;;
59476;SDS011;73078;49.762;6.594;2023-12-20T04:58:50;6.45;;;3.38;;
59476;SDS011;73078;49.762;6.594;2023-12-20T05:01:16;7.05;;;3.38;;
59476;SDS011;73078;49.762;6.594;2023-12-20T05:03:42;5.60;;;3.40;;
59476;SDS011;73078;49.762;6.594;2023-12-20T05:06:09;6.30;;;3.10;;
59476;SDS011;73078;49.762;6.594;2023-12-20T05:08:35;10.23;;;4.32;;
59476;SDS011;73078;49.762;6.594;2023-12-20T05:11:01;8.95;;;4.00;;
59476;SDS011;73078;49.762;6.594;2023-12-20T05:13:27;5.53;;;3.63;;
59476;SDS011;73078;49.762;6.594;2023-12-20T05:15:53;4.45;;;3.38;;
59476;SDS011;73078;49.762;6.594;2023-12-20T05:18:20;8.75;;;3.83;;
59476;SDS011;73078;49.762;6.594;2023-12-20T05:20:46;9.07;;;3.38;;
59476;SDS011;73078;49.762;6.594;2023-12-20T05:23:12;6.15;;;3.50;;
59476;SDS011;73078;49.762;6.594;2023-12-20T05:25:38;7.50;;;3.45;;
59476;SDS011;73078;49.762;6.594;2023-12-20T05:28:04;9.00;;;3.90;;
59476;SDS011;73078;49.762;6.594;2023-12-20T05:30:30;8.60;;;3.47;;
59476;SDS011;73078;49.762;6.594;2023-12-20T05:32:56;7.00;;;3.83;;
59476;SDS011;73078;49.762;6.594;2023-12-20T05:35:22;6.40;;;3.80;;
59476;SDS011;73078;49.762;6.594;2023-12-20T05:37:48;6.30;;;3.53;;
59476;SDS011;73078;49.762;6.594;2023-12-20T05:40:14;10.70;;;3.97;;
59476;SDS011;73078;49.762;6.594;2023-12-20T05:42:40;8.90;;;3.75;;
59476;SDS011;73078;49.762;6.594;2023-12-20T05:45:06;6.30;;;3.53;;
59476;SDS011;73078;49.762;6.594;2023-12-20T05:47:32;5.93;;;3.65;;
59476;SDS011;73078;49.762;6.594;2023-12-20T05:49:58;9.40;;;4.28;;
59476;SDS011;73078;49.762;6.594;2023-12-20T05:52:24;4.85;;;3.30;;
59476;SDS011;73078;49.762;6.594;2023-12-20T05:54:50;7.00;;;3.65;;
59476;SDS011;73078;49.762;6.594;2023-12-20T05:57:17;11.32;;;4.38;;
59476;SDS011;73078;49.762;6.594;2023-12-20T05:59:43;8.55;;;4.30;;
59476;SDS011;73078;49.762;6.594;2023-12-20T06:02:09;12.82;;;4.55;;
59476;SDS011;73078;49.762;6.594;2023-12-20T06:04:35;8.15;;;3.92;;
59476;SDS011;73078;49.762;6.594;2023-12-20T06:07:01;9.43;;;4.22;;
59476;SDS011;73078;49.762;6.594;2023-12-20T06:09:27;8.23;;;4.07;;
59476;SDS011;73078;49.762;6.594;2023-12-20T06:11:53;8.88;;;4.50;;
59476;SDS011;73078;49.762;6.594;2023-12-20T06:14:19;9.85;;;3.95;;
59476;SDS011;73078;49.762;6.594;2023-12-20T06:16:45;9.35;;;4.55;;
59476;SDS011;73078;49.762;6.594;2023-12-20T06:19:11;8.13;;;4.47;;
59476;SDS011;73078;49.762;6.594;2023-12-20T06:21:37;10.38;;;4.30;;
59476;SDS011;73078;49.762;6.594;2023-12-20T06:24:03;5.63;;;3.90;;
59476;SDS011;73078;49.762;6.594;2023-12-20T06:26:29;10.63;;;4.13;;
59476;SDS011;73078;49.762;6.594;2023-12-20T06:28:55;10.02;;;4.70;;
59476;SDS011;73078;49.762;6.594;2023-12-20T06:31:24;10.35;;;4.15;;
59476;SDS011;73078;49.762;6.594;2023-12-20T06:33:50;7.55;;;4.10;;
59476;SDS011;73078;49.762;6.594;2023-12-20T06:36:22;9.45;;;4.03;;
59476;SDS011;73078;49.762;6.594;2023-12-20T06:38:48;9.65;;;4.95;;
59476;SDS011;73078;49.762;6.594;2023-12-20T06:41:15;7.45;;;4.57;;
59476;SDS011;73078;49.762;6.594;2023-12-20T06:43:41;12.25;;;4.85;;
59476;SDS011;73078;49.762;6.594;2023-12-20T06:46:07;9.25;;;4.68;;
59476;SDS011;73078;49.762;6.594;2023-12-20T06:48:34;9.52;;;4.90;;
59476;SDS011;73078;49.762;6.594;2023-12-20T06:51:00;11.60;;;4.88;;
59476;SDS011;73078;49.762;6.594;2023-12-20T06:53:29;10.68;;;5.03;;
59476;SDS011;73078;49.762;6.594;2023-12-20T06:55:55;10.57;;;5.95;;
59476;SDS011;73078;49.762;6.594;2023-12-20T06:58:21;13.88;;;4.47;;
59476;SDS011;73078;49.762;6.594;2023-12-20T07:00:47;14.32;;;5.30;;
59476;SDS011;73078;49.762;6.594;2023-12-20T07:03:13;11.18;;;4.50;;
59476;SDS011;73078;49.762;6.594;2023-12-20T07:05:39;9.90;;;5.00;;
59476;SDS011;73078;49.762;6.594;2023-12-20T07:08:06;13.93;;;5.25;;
59476;SDS011;73078;49.762;6.594;2023-12-20T07:10:32;11.15;;;4.85;;
59476;SDS011;73078;49.762;6.594;2023-12-20T07:12:58;12.05;;;5.07;;
59476;SDS011;73078;49.762;6.594;2023-12-20T07:15:24;10.25;;;4.63;;
59476;SDS011;73078;49.762;6.594;2023-12-20T07:17:50;11.50;;;4.72;;
59476;SDS011;73078;49.762;6.594;2023-12-20T07:20:16;11.93;;;5.10;;
59476;SDS011;73078;49.762;6.594;2023-12-20T07:22:42;14.60;;;5.72;;
59476;SDS011;73078;49.762;6.594;2023-12-20T07:25:08;10.07;;;4.97;;
59476;SDS011;73078;49.762;6.594;2023-12-20T07:27:34;17.08;;;5.75;;
59476;SDS011;73078;49.762;6.594;2023-12-20T07:30:00;10.15;;;5.07;;
59476;SDS011;73078;49.762;6.594;2023-12-20T07:32:26;11.45;;;4.78;;
59476;SDS011;73078;49.762;6.594;2023-12-20T07:34:52;14.15;;;5.28;;
59476;SDS011;73078;49.762;6.594;2023-12-20T07:37:18;10.10;;;5.00;;
59476;SDS011;73078;49.762;6.594;2023-12-20T07:39:44;16.10;;;5.13;;
59476;SDS011;73078;49.762;6.594;2023-12-20T07:42:10;13.93;;;5.72;;
59476;SDS011;73078;49.762;6.594;2023-12-20T07:44:36;12.18;;;5.05;;
59476;SDS011;73078;49.762;6.594;2023-12-20T07:47:02;11.18;;;5.50;;
59476;SDS011;73078;49.762;6.594;2023-12-20T07:49:29;16.75;;;5.88;;
59476;SDS011;73078;49.762;6.594;2023-12-20T07:51:55;12.05;;;5.43;;
59476;SDS011;73078;49.762;6.594;2023-12-20T07:54:21;14.20;;;5.68;;
59476;SDS011;73078;49.762;6.594;2023-12-20T07:56:48;11.38;;;5.20;;
59476;SDS011;73078;49.762;6.594;2023-12-20T07:59:14;11.15;;;5.28;;
59476;SDS011;73078;49.762;6.594;2023-12-20T08:01:40;14.10;;;5.35;;
59476;SDS011;73078;49.762;6.594;2023-12-20T08:04:07;13.15;;;5.07;;
59476;SDS011;73078;49.762;6.594;2023-12-20T08:06:33;16.58;;;6.10;;
59476;SDS011;73078;49.762;6.594;2023-12-20T08:08:59;13.07;;;5.82;;
59476;SDS011;73078;49.762;6.594;2023-12-20T08:11:25;14.45;;;6.40;;
59476;SDS011;73078;49.762;6.594;2023-12-20T08:13:51;15.85;;;5.93;;
59476;SDS011;73078;49.762;6.594;2023-12-20T08:16:17;12.60;;;6.38;;
59476;SDS011;73078;49.762;6.594;2023-12-20T08:18:43;13.65;;;6.35;;
59476;SDS011;73078;49.762;6.594;2023-12-20T08:21:09;12.02;;;6.28;;
59476;SDS011;73078;49.762;6.594;2023-12-20T08:23:36;16.17;;;5.78;;
59476;SDS011;73078;49.762;6.594;2023-12-20T08:26:05;16.30;;;6.55;;
59476;SDS011;73078;49.762;6.594;2023-12-20T08:28:31;20.00;;;6.95;;
59476;SDS011;73078;49.762;6.594;2023-12-20T08:30:57;21.20;;;8.45;;
59476;SDS011;73078;49.762;6.594;2023-12-20T08:33:23;24.52;;;7.82;;
59476;SDS011;73078;49.762;6.594;2023-12-20T08:35:49;17.90;;;7.97;;
59476;SDS011;73078;49.762;6.594;2023-12-20T08:38:15;18.10;;;7.80;;
59476;SDS011;73078;49.762;6.594;2023-12-20T08:40:42;14.93;;;7.72;;
59476;SDS011;73078;49.762;6.594;2023-12-20T08:43:08;21.50;;;8.90;;
59476;SDS011;73078;49.762;6.594;2023-12-20T08:45:34;19.90;;;7.45;;
59476;SDS011;73078;49.762;6.594;2023-12-20T08:48:00;12.45;;;7.55;;
59476;SDS011;73078;49.762;6.594;2023-12-20T08:50:26;15.90;;;7.43;;
59476;SDS011;73078;49.762;6.594;2023-12-20T08:52:52;21.48;;;8.93;;
59476;SDS011;73078;49.762;6.594;2023-12-20T08:55:19;18.65;;;8.80;;
59476;SDS011;73078;49.762;6.594;2023-12-20T08:57:45;19.20;;;8.77;;
59476;SDS011;73078;49.762;6.594;2023-12-20T09:00:11;23.90;;;8.93;;
59476;SDS011;73078;49.762;6.594;2023-12-20T09:02:37;16.20;;;8.18;;
59476;SDS011;73078;49.762;6.594;2023-12-20T09:05:04;19.75;;;9.02;;
59476;SDS011;73078;49.762;6.594;2023-12-20T09:07:30;17.85;;;8.80;;
59476;SDS011;73078;49.762;6.594;2023-12-20T09:09:57;18.33;;;9.10;;
59476;SDS011;73078;49.762;6.594;2023-12-20T09:12:23;18.70;;;8.23;;
59476;SDS011;73078;49.762;6.594;2023-12-20T09:14:49;16.85;;;8.40;;
59476;SDS011;73078;49.762;6.594;2023-12-20T09:17:16;18.85;;;7.75;;
59476;SDS011;73078;49.762;6.594;2023-12-20T09:19:42;20.52;;;8.20;;
59476;SDS011;73078;49.762;6.594;2023-12-20T09:22:09;15.68;;;7.63;;
59476;SDS011;73078;49.762;6.594;2023-12-20T09:24:35;18.63;;;8.52;;
59476;SDS011;73078;49.762;6.594;2023-12-20T09:27:01;20.05;;;8.07;;
59476;SDS011;73078;49.762;6.594;2023-12-20T09:29:27;17.60;;;8.15;;
59476;SDS011;73078;49.762;6.594;2023-12-20T09:31:53;15.23;;;7.47;;
59476;SDS011;73078;49.762;6.594;2023-12-20T09:34:19;13.32;;;7.43;;
59476;SDS011;73078;49.762;6.594;2023-12-20T09:36:46;15.15;;;7.47;;
59476;SDS011;73078;49.762;6.594;2023-12-20T09:39:13;16.58;;;7.25;;
59476;SDS011;73078;49.762;6.594;2023-12-20T09:41:41;14.25;;;7.68;;
59476;SDS011;73078;49.762;6.594;2023-12-20T09:44:10;13.20;;;7.32;;
59476;SDS011;73078;49.762;6.594;2023-12-20T09:46:38;16.98;;;7.90;;
59476;SDS011;73078;49.762;6.594;2023-12-20T09:51:34;15.70;;;7.68;;
59476;SDS011;73078;49.762;6.594;2023-12-20T09:54:00;14.52;;;7.40;;
59476;SDS011;73078;49.762;6.594;2023-12-20T09:56:28;14.45;;;7.05;;
59476;SDS011;73078;49.762;6.594;2023-12-20T09:58:54;16.38;;;6.57;;
59476;SDS011;73078;49.762;6.594;2023-12-20T10:01:20;14.32;;;7.60;;
59476;SDS011;73078;49.762;6.594;2023-12-20T10:03:46;18.73;;;7.55;;
59476;SDS011;73078;49.762;6.594;2023-12-20T10:06:12;12.35;;;6.20;;
59476;SDS011;73078;49.762;6.594;2023-12-20T10:08:39;16.00;;;6.70;;
59476;SDS011;73078;49.762;6.594;2023-12-20T10:11:05;14.05;;;6.30;;
59476;SDS011;73078;49.762;6.594;2023-12-20T10:13:31;11.75;;;5.63;;
59476;SDS011;73078;49.762;6.594;2023-12-20T10:15:57;16.08;;;5.63;;
59476;SDS011;73078;49.762;6.594;2023-12-20T10:18:23;13.85;;;6.03;;
59476;SDS011;73078;49.762;6.594;2023-12-20T10:20:49;11.30;;;6.20;;
59476;SDS011;73078;49.762;6.594;2023-12-20T10:23:15;11.82;;;5.38;;
59476;SDS011;73078;49.762;6.594;2023-12-20T10:25:42;23.33;;;6.20;;
59476;SDS011;73078;49.762;6.594;2023-12-20T10:30:34;10.73;;;5.05;;
59476;SDS011;73078;49.762;6.594;2023-12-20T10:33:00;10.77;;;4.63;;
59476;SDS011;73078;49.762;6.594;2023-12-20T10:35:26;11.88;;;5.32;;
59476;SDS011;73078;49.762;6.594;2023-12-20T10:37:54;16.73;;;5.25;;
59476;SDS011;73078;49.762;6.594;2023-12-20T10:40:24;13.30;;;5.07;;
59476;SDS011;73078;49.762;6.594;2023-12-20T10:42:51;12.45;;;5.07;;
59476;SDS011;73078;49.762;6.594;2023-12-20T10:45:18;9.70;;;4.45;;
59476;SDS011;73078;49.762;6.594;2023-12-20T10:47:46;12.32;;;4.90;;
59476;SDS011;73078;49.762;6.594;2023-12-20T10:50:12;11.38;;;4.80;;
59476;SDS011;73078;49.762;6.594;2023-12-20T10:52:38;12.80;;;3.97;;
59476;SDS011;73078;49.762;6.594;2023-12-20T10:55:06;10.05;;;4.80;;
59476;SDS011;73078;49.762;6.594;2023-12-20T10:57:32;12.10;;;4.50;;
59476;SDS011;73078;49.762;6.594;2023-12-20T11:00:00;8.63;;;4.05;;
59476;SDS011;73078;49.762;6.594;2023-12-20T11:02:31;11.10;;;3.75;;
59476;SDS011;73078;49.762;6.594;2023-12-20T11:05:05;10.93;;;4.25;;
59476;SDS011;73078;49.762;6.594;2023-12-20T11:07:35;19.08;;;5.18;;
59476;SDS011;73078;49.762;6.594;2023-12-20T11:10:04;10.88;;;4.55;;
59476;SDS011;73078;49.762;6.594;2023-12-20T11:12:36;8.23;;;4.35;;
59476;SDS011;73078;49.762;6.594;2023-12-20T11:15:04;9.63;;;3.97;;
59476;SDS011;73078;49.762;6.594;2023-12-20T11:17:31;9.45;;;3.90;;
59476;SDS011;73078;49.762;6.594;2023-12-20T11:22:24;10.20;;;3.58;;
59476;SDS011;73078;49.762;6.594;2023-12-20T11:24:51;10.35;;;3.90;;
59476;SDS011;73078;49.762;6.594;2023-12-20T11:27:18;9.57;;;3.30;;
59476;SDS011;73078;49.762;6.594;2023-12-20T11:29:54;9.48;;;3.88;;
59476;SDS011;73078;49.762;6.594;2023-12-20T11:32:27;8.70;;;3.67;;
59476;SDS011;73078;49.762;6.594;2023-12-20T11:34:56;13.95;;;3.75;;
59476;SDS011;73078;49.762;6.594;2023-12-20T11:37:22;7.97;;;3.72;;
59476;SDS011;73078;49.762;6.594;2023-12-20T11:40:00;9.30;;;4.18;;
59476;SDS011;73078;49.762;6.594;2023-12-20T11:42:27;8.35;;;4.07;;
59476;SDS011;73078;49.762;6.594;2023-12-20T11:44:53;6.45;;;3.80;;
59476;SDS011;73078;49.762;6.594;2023-12-20T11:47:19;9.30;;;4.03;;
59476;SDS011;73078;49.762;6.594;2023-12-20T11:49:48;10.43;;;4.22;;
59476;SDS011;73078;49.762;6.594;2023-12-20T11:52:16;13.88;;;3.95;;
59476;SDS011;73078;49.762;6.594;2023-12-20T11:54:42;9.80;;;3.90;;
59476;SDS011;73078;49.762;6.594;2023-12-20T11:57:08;10.93;;;3.85;;
59476;SDS011;73078;49.762;6.594;2023-12-20T11:59:33;8.82;;;3.65;;
59476;SDS011;73078;49.762;6.594;2023-12-20T12:01:59;9.65;;;3.75;;
59476;SDS011;73078;49.762;6.594;2023-12-20T12:04:26;8.20;;;4.03;;
59476;SDS011;73078;49.762;6.594;2023-12-20T12:06:53;13.43;;;3.70;;
59476;SDS011;73078;49.762;6.594;2023-12-20T12:09:19;10.98;;;4.22;;
59476;SDS011;73078;49.762;6.594;2023-12-20T12:11:45;10.40;;;3.85;;
59476;SDS011;73078;49.762;6.594;2023-12-20T12:14:11;9.07;;;3.72;;
59476;SDS011;73078;49.762;6.594;2023-12-20T12:16:37;9.85;;;3.63;;
59476;SDS011;73078;49.762;6.594;2023-12-20T12:19:03;10.65;;;3.80;;
59476;SDS011;73078;49.762;6.594;2023-12-20T12:21:29;6.63;;;3.70;;
59476;SDS011;73078;49.762;6.594;2023-12-20T12:24:05;7.40;;;3.08;;
59476;SDS011;73078;49.762;6.594;2023-12-20T12:26:31;10.20;;;3.47;;
59476;SDS011;73078;49.762;6.594;2023-12-20T12:28:57;11.45;;;3.65;;
59476;SDS011;73078;49.762;6.594;2023-12-20T12:31:23;10.68;;;3.25;;
59476;SDS011;73078;49.762;6.594;2023-12-20T12:33:51;9.15;;;3.38;;
59476;SDS011;73078;49.762;6.594;2023-12-20T12:36:17;15.15;;;3.80;;
59476;SDS011;73078;49.762;6.594;2023-12-20T12:38:43;6.13;;;3.40;;
59476;SDS011;73078;49.762;6.594;2023-12-20T12:41:09;9.18;;;3.45;;
59476;SDS011;73078;49.762;6.594;2023-12-20T12:43:35;8.05;;;3.65;;
59476;SDS011;73078;49.762;6.594;2023-12-20T12:46:01;14.00;;;4.05;;
59476;SDS011;73078;49.762;6.594;2023-12-20T12:48:27;12.00;;;3.90;;
59476;SDS011;73078;49.762;6.594;2023-12-20T12:50:53;9.90;;;4.30;;
59476;SDS011;73078;49.762;6.594;2023-12-20T12:53:23;12.02;;;3.92;;
59476;SDS011;73078;49.762;6.594;2023-12-20T12:55:49;8.23;;;3.55;;
59476;SDS011;73078;49.762;6.594;2023-12-20T12:58:15;8.02;;;3.55;;
59476;SDS011;73078;49.762;6.594;2023-12-20T13:00:41;8.60;;;3.67;;
59476;SDS011;73078;49.762;6.594;2023-12-20T13:03:07;7.38;;;3.53;;
59476;SDS011;73078;49.762;6.594;2023-12-20T13:05:33;9.38;;;3.70;;
59476;SDS011;73078;49.762;6.594;2023-12-20T13:08:00;5.78;;;3.03;;
59476;SDS011;73078;49.762;6.594;2023-12-20T13:10:26;7.22;;;3.47;;
59476;SDS011;73078;49.762;6.594;2023-12-20T13:12:52;13.52;;;4.55;;
59476;SDS011;73078;49.762;6.594;2023-12-20T13:15:18;11.43;;;3.70;;
59476;SDS011;73078;49.762;6.594;2023-12-20T13:17:44;10.13;;;4.43;;
59476;SDS011;73078;49.762;6.594;2023-12-20T13:20:11;8.73;;;2.92;;
59476;SDS011;73078;49.762;6.594;2023-12-20T13:22:37;6.65;;;3.88;;
59476;SDS011;73078;49.762;6.594;2023-12-20T13:25:03;7.75;;;3.65;;
59476;SDS011;73078;49.762;6.594;2023-12-20T13:27:29;11.40;;;4.38;;
59476;SDS011;73078;49.762;6.594;2023-12-20T13:29:55;7.85;;;3.63;;
59476;SDS011;73078;49.762;6.594;2023-12-20T13:32:21;9.90;;;3.60;;
59476;SDS011;73078;49.762;6.594;2023-12-20T13:34:47;8.23;;;3.25;;
59476;SDS011;73078;49.762;6.594;2023-12-20T13:37:13;10.18;;;3.38;;
59476;SDS011;73078;49.762;6.594;2023-12-20T13:39:39;7.22;;;3.50;;
59476;SDS011;73078;49.762;6.594;2023-12-20T13:42:07;11.63;;;3.88;;
59476;SDS011;73078;49.762;6.594;2023-12-20T13:44:33;8.75;;;3.53;;
59476;SDS011;73078;49.762;6.594;2023-12-20T13:46:59;8.80;;;3.72;;
59476;SDS011;73078;49.762;6.594;2023-12-20T13:49:26;11.80;;;4.18;;
59476;SDS011;73078;49.762;6.594;2023-12-20T13:51:53;7.68;;;3.67;;
59476;SDS011;73078;49.762;6.594;2023-12-20T13:54:20;11.77;;;4.30;;
59476;SDS011;73078;49.762;6.594;2023-12-20T13:56:47;7.05;;;3.60;;
59476;SDS011;73078;49.762;6.594;2023-12-20T13:59:13;7.35;;;3.75;;
59476;SDS011;73078;49.762;6.594;2023-12-20T14:01:40;9.38;;;3.50;;
59476;SDS011;73078;49.762;6.594;2023-12-20T14:04:06;9.30;;;3.90;;
59476;SDS011;73078;49.762;6.594;2023-12-20T14:06:32;12.10;;;3.75;;
59476;SDS011;73078;49.762;6.594;2023-12-20T14:08:58;10.10;;;3.97;;
59476;SDS011;73078;49.762;6.594;2023-12-20T14:11:30;6.95;;;3.63;;
59476;SDS011;73078;49.762;6.594;2023-12-20T14:13:56;8.10;;;3.45;;
59476;SDS011;73078;49.762;6.594;2023-12-20T14:16:25;8.95;;;4.05;;
59476;SDS011;73078;49.762;6.594;2023-12-20T14:18:51;11.45;;;3.80;;
59476;SDS011;73078;49.762;6.594;2023-12-20T14:21:17;11.25;;;3.80;;
59476;SDS011;73078;49.762;6.594;2023-12-20T14:23:44;7.55;;;3.45;;
59476;SDS011;73078;49.762;6.594;2023-12-20T14:26:11;10.40;;;4.63;;
59476;SDS011;73078;49.762;6.594;2023-12-20T14:28:40;11.85;;;3.97;;
59476;SDS011;73078;49.762;6.594;2023-12-20T14:31:06;8.30;;;3.92;;
59476;SDS011;73078;49.762;6.594;2023-12-20T14:33:33;6.82;;;3.60;;
59476;SDS011;73078;49.762;6.594;2023-12-20T14:35:59;6.75;;;3.50;;
59476;SDS011;73078;49.762;6.594;2023-12-20T14:38:25;12.00;;;3.58;;
59476;SDS011;73078;49.762;6.594;2023-12-20T14:40:51;6.82;;;4.43;;
59476;SDS011;73078;49.762;6.594;2023-12-20T14:43:17;12.68;;;4.10;;